createdAt,value
2019-05-11T00:01:27.743Z,7.42
2019-05-11T00:03:56.631Z,6.45
2019-05-11T00:06:25.398Z,7.58
2019-05-11T00:08:54.199Z,6.90
2019-05-11T00:11:22.704Z,6.53
2019-05-11T00:13:51.675Z,7.47
2019-05-11T00:16:20.446Z,6.45
2019-05-11T00:18:48.906Z,6.22
2019-05-11T00:21:17.758Z,7.67
2019-05-11T00:23:46.643Z,7.90
2019-05-11T00:26:15.494Z,6.85
2019-05-11T00:28:44.366Z,8.00
2019-05-11T00:31:12.793Z,6.80
2019-05-11T00:33:41.248Z,5.87
2019-05-11T00:36:10.039Z,6.47
2019-05-11T00:38:38.611Z,6.00
2019-05-11T00:41:07.047Z,6.83
2019-05-11T00:43:35.837Z,6.67
2019-05-11T00:46:04.277Z,6.53
2019-05-11T00:48:33.064Z,6.58
2019-05-11T00:51:02.161Z,7.45
2019-05-11T00:53:30.969Z,6.80
2019-05-11T00:55:59.867Z,6.20
2019-05-11T00:58:28.745Z,5.97
2019-05-11T01:00:57.780Z,6.78
2019-05-11T01:03:26.299Z,6.50
2019-05-11T01:05:54.832Z,6.30
2019-05-11T01:08:23.334Z,8.18
2019-05-11T01:10:51.871Z,6.28
2019-05-11T01:13:20.652Z,6.55
2019-05-11T01:15:49.199Z,6.40
2019-05-11T01:18:17.634Z,6.83
2019-05-11T01:20:46.507Z,5.40
2019-05-11T01:23:15.319Z,6.00
2019-05-11T01:25:44.169Z,5.10
2019-05-11T01:28:12.669Z,4.70
2019-05-11T01:30:41.463Z,5.55
2019-05-11T01:33:10.243Z,5.42
2019-05-11T01:35:39.107Z,4.35
2019-05-11T01:38:07.861Z,5.62
2019-05-11T01:40:36.311Z,6.15
2019-05-11T01:43:05.079Z,5.05
2019-05-11T01:45:34.171Z,5.42
2019-05-11T01:48:02.657Z,5.80
2019-05-11T01:50:31.185Z,5.37
2019-05-11T01:53:00.026Z,5.22
2019-05-11T01:55:28.932Z,5.70
2019-05-11T01:57:57.471Z,5.83
2019-05-11T02:00:26.260Z,5.97
2019-05-11T02:02:54.710Z,5.53
2019-05-11T02:05:32.277Z,6.03
2019-05-11T02:08:02.162Z,5.33
2019-05-11T02:10:31.075Z,5.78
2019-05-11T02:12:59.839Z,5.83
2019-05-11T02:15:28.446Z,6.58
2019-05-11T02:17:56.927Z,6.25
2019-05-11T02:20:25.402Z,5.25
2019-05-11T02:22:54.185Z,5.83
2019-05-11T02:25:23.032Z,5.67
2019-05-11T02:27:51.537Z,5.50
2019-05-11T02:30:20.274Z,5.75
2019-05-11T02:32:48.900Z,5.58
2019-05-11T02:35:17.511Z,7.00
2019-05-11T02:37:46.346Z,5.60
2019-05-11T02:40:16.002Z,5.83
2019-05-11T02:42:44.474Z,5.28
2019-05-11T02:45:13.896Z,6.17
2019-05-11T02:47:42.418Z,6.05
2019-05-11T02:50:11.560Z,6.08
2019-05-11T02:52:40.255Z,6.40
2019-05-11T02:55:09.338Z,5.92
2019-05-11T02:57:38.202Z,6.12
2019-05-11T03:00:10.601Z,6.55
2019-05-11T03:02:39.383Z,4.87
2019-05-11T03:05:08.287Z,6.17
2019-05-11T03:07:37.075Z,5.55
2019-05-11T03:10:05.757Z,6.25
2019-05-11T03:12:34.663Z,5.20
2019-05-11T03:15:03.566Z,6.37
2019-05-11T03:17:33.692Z,5.42
2019-05-11T03:20:27.292Z,5.15
2019-05-11T03:22:55.816Z,5.55
2019-05-11T03:25:24.587Z,5.40
2019-05-11T03:27:53.467Z,6.37
2019-05-11T03:30:22.312Z,6.60
2019-05-11T03:32:52.174Z,5.33
2019-05-11T03:35:21.032Z,5.78
2019-05-11T03:37:49.888Z,5.20
2019-05-11T03:40:18.700Z,6.40
2019-05-11T03:42:47.490Z,5.55
2019-05-11T03:45:16.269Z,5.80
2019-05-11T03:47:45.155Z,4.28
2019-05-11T03:50:14.401Z,5.80
2019-05-11T03:53:02.603Z,5.30
2019-05-11T03:55:32.014Z,5.15
2019-05-11T03:58:00.616Z,5.28
2019-05-11T04:00:29.172Z,5.83
2019-05-11T04:02:57.707Z,5.05
2019-05-11T04:05:26.535Z,5.30
2019-05-11T04:07:55.374Z,5.40
2019-05-11T04:10:25.439Z,6.20
2019-05-11T04:12:54.007Z,5.05
2019-05-11T04:15:22.838Z,5.65
2019-05-11T04:17:51.719Z,5.92
2019-05-11T04:20:20.635Z,6.03
2019-05-11T04:22:49.579Z,4.95
2019-05-11T04:25:18.081Z,5.85
2019-05-11T04:27:46.564Z,4.87
2019-05-11T04:30:15.552Z,4.80
2019-05-11T04:32:44.372Z,5.30
2019-05-11T04:35:14.944Z,5.70
2019-05-11T04:37:43.824Z,5.00
2019-05-11T04:40:12.469Z,5.58
2019-05-11T04:42:54.024Z,4.53
2019-05-11T04:45:11.650Z,4.78
2019-05-11T04:47:40.774Z,5.08
2019-05-11T04:50:09.458Z,4.80
2019-05-11T04:52:38.329Z,6.28
2019-05-11T04:55:07.054Z,5.67
2019-05-11T04:57:35.852Z,5.45
2019-05-11T05:00:05.920Z,4.60
2019-05-11T05:02:34.793Z,5.10
2019-05-11T05:05:03.583Z,4.40
2019-05-11T05:07:32.378Z,5.40
2019-05-11T05:10:01.135Z,4.35
2019-05-11T05:12:29.900Z,5.25
2019-05-11T05:14:58.689Z,4.92
2019-05-11T05:17:27.133Z,5.00
2019-05-11T05:19:55.590Z,3.90
2019-05-11T05:22:27.806Z,4.75
2019-05-11T05:24:54.275Z,5.05
2019-05-11T05:27:23.108Z,4.42
2019-05-11T05:29:51.569Z,4.42
2019-05-11T05:32:20.381Z,4.85
2019-05-11T05:34:48.898Z,5.17
2019-05-11T05:37:17.715Z,4.70
2019-05-11T05:39:46.534Z,4.37
2019-05-11T05:42:15.373Z,5.42
2019-05-11T05:44:44.224Z,4.75
2019-05-11T05:47:13.029Z,4.30
2019-05-11T05:49:41.859Z,4.53
2019-05-11T05:52:10.395Z,4.80
2019-05-11T05:54:39.328Z,4.70
2019-05-11T05:57:08.160Z,4.70
2019-05-11T05:59:36.947Z,4.95
2019-05-11T06:02:05.742Z,5.97
2019-05-11T06:04:34.514Z,5.53
2019-05-11T06:07:02.969Z,4.85
2019-05-11T06:09:31.823Z,5.65
2019-05-11T06:12:00.285Z,4.53
2019-05-11T06:14:28.741Z,4.92
2019-05-11T06:16:57.503Z,5.12
2019-05-11T06:19:26.306Z,6.03
2019-05-11T06:21:55.197Z,6.00
2019-05-11T06:24:24.163Z,5.72
2019-05-11T06:26:52.613Z,6.28
2019-05-11T06:29:21.863Z,5.83
2019-05-11T06:31:50.683Z,5.55
2019-05-11T06:34:19.467Z,5.25
2019-05-11T06:36:48.223Z,5.72
2019-05-11T06:39:16.694Z,5.70
2019-05-11T06:41:45.457Z,5.70
2019-05-11T06:44:14.236Z,5.50
2019-05-11T06:46:43.123Z,5.10
2019-05-11T06:49:11.663Z,5.12
2019-05-11T06:51:40.754Z,5.30
2019-05-11T06:54:09.713Z,4.67
2019-05-11T06:56:38.284Z,5.83
2019-05-11T06:59:07.194Z,5.15
2019-05-11T07:01:35.627Z,5.00
2019-05-11T07:04:04.462Z,5.00
2019-05-11T07:06:33.261Z,5.40
2019-05-11T07:09:02.205Z,4.65
2019-05-11T07:11:50.093Z,5.95
2019-05-11T07:14:21.291Z,5.40
2019-05-11T07:16:49.798Z,4.70
2019-05-11T07:19:18.387Z,4.75
2019-05-11T07:21:47.315Z,5.50
2019-05-11T07:24:17.081Z,5.25
2019-05-11T07:26:45.928Z,5.45
2019-05-11T07:29:14.541Z,5.27
2019-05-11T07:31:43.117Z,7.10
2019-05-11T07:34:11.628Z,6.20
2019-05-11T07:36:40.110Z,5.33
2019-05-11T07:39:08.818Z,5.25
2019-05-11T07:41:38.761Z,5.33
2019-05-11T07:44:09.948Z,5.95
2019-05-11T07:46:37.939Z,6.03
2019-05-11T07:49:08.726Z,6.08
2019-05-11T07:51:38.982Z,5.58
2019-05-11T07:54:08.432Z,4.08
2019-05-11T07:56:39.096Z,5.65
2019-05-11T07:59:08.160Z,4.30
2019-05-11T08:01:38.607Z,9.08
2019-05-11T08:04:07.964Z,4.25
2019-05-11T08:06:38.900Z,4.37
2019-05-11T08:09:08.335Z,4.90
2019-05-11T08:11:38.835Z,4.57
2019-05-11T08:14:07.896Z,6.20
2019-05-11T08:16:38.710Z,5.10
2019-05-11T08:19:10.045Z,4.22
2019-05-11T08:21:38.889Z,4.17
2019-05-11T08:24:09.174Z,5.10
2019-05-11T08:26:38.643Z,4.05
2019-05-11T08:29:08.132Z,4.77
2019-05-11T08:31:38.543Z,4.07
2019-05-11T08:34:08.826Z,5.37
2019-05-11T08:36:37.924Z,4.60
2019-05-11T08:39:08.041Z,3.90
2019-05-11T08:41:38.488Z,4.67
2019-05-11T08:44:08.706Z,3.80
2019-05-11T08:46:38.383Z,4.57
2019-05-11T08:49:08.441Z,4.23
2019-05-11T08:51:38.504Z,4.83
2019-05-11T08:54:25.922Z,4.27
2019-05-11T08:56:54.200Z,4.80
2019-05-11T08:59:22.775Z,5.23
2019-05-11T09:01:51.442Z,4.23
2019-05-11T09:04:19.931Z,5.40
2019-05-11T09:06:48.517Z,5.20
2019-05-11T09:09:18.132Z,4.63
2019-05-11T09:11:48.158Z,5.30
2019-05-11T09:14:18.685Z,5.30
2019-05-11T09:16:48.927Z,5.83
2019-05-11T09:19:17.831Z,5.40
2019-05-11T09:21:48.221Z,5.50
2019-05-11T09:24:18.716Z,5.50
2019-05-11T09:26:47.940Z,5.20
2019-05-11T09:29:17.986Z,5.67
2019-05-11T09:31:48.732Z,6.03
2019-05-11T09:34:18.123Z,4.50
2019-05-11T09:36:47.990Z,5.43
2019-05-11T09:39:17.712Z,4.83
2019-05-11T09:41:48.666Z,6.00
2019-05-11T09:44:18.274Z,5.80
2019-05-11T09:46:47.815Z,5.07
2019-05-11T09:49:18.365Z,5.80
2019-05-11T09:51:48.234Z,5.30
2019-05-11T09:54:18.274Z,4.40
2019-05-11T09:56:48.597Z,4.83
2019-05-11T09:59:17.902Z,9.40
2019-05-11T10:01:48.322Z,4.57
2019-05-11T10:04:18.058Z,3.90
2019-05-11T10:06:48.087Z,5.40
2019-05-11T10:09:18.479Z,5.40
2019-05-11T10:11:48.034Z,4.60
2019-05-11T10:14:18.644Z,4.37
2019-05-11T10:16:46.265Z,5.00
2019-05-11T10:19:14.453Z,4.10
2019-05-11T10:21:42.958Z,3.77
2019-05-11T10:24:11.149Z,4.63
2019-05-11T10:26:39.720Z,4.93
2019-05-11T10:29:28.904Z,4.10
2019-05-11T10:31:58.704Z,4.13
2019-05-11T10:34:28.567Z,3.93
2019-05-11T10:36:57.963Z,4.70
2019-05-11T10:39:27.886Z,5.00
2019-05-11T10:41:58.314Z,4.60
2019-05-11T10:44:28.070Z,5.80
2019-05-11T10:46:58.683Z,4.70
2019-05-11T10:49:28.831Z,5.40
2019-05-11T10:51:58.660Z,4.60
2019-05-11T10:54:28.701Z,5.00
2019-05-11T10:56:57.933Z,4.30
2019-05-11T10:59:28.281Z,4.07
2019-05-11T11:01:58.788Z,4.30
2019-05-11T11:04:28.607Z,4.00
2019-05-11T11:06:58.939Z,5.10
2019-05-11T11:09:28.205Z,4.73
2019-05-11T11:11:57.924Z,4.50
2019-05-11T11:14:28.474Z,4.70
2019-05-11T11:16:58.414Z,3.70
2019-05-11T11:19:28.751Z,5.00
2019-05-11T11:22:06.594Z,5.53
2019-05-11T11:24:28.656Z,3.93
2019-05-11T11:26:57.665Z,5.13
2019-05-11T11:29:28.565Z,4.60
2019-05-11T11:31:55.945Z,5.40
2019-05-11T11:34:24.175Z,4.70
2019-05-11T11:36:52.370Z,4.97
2019-05-11T11:39:20.879Z,4.73
2019-05-11T11:41:49.172Z,5.00
2019-05-11T11:44:18.527Z,5.20
2019-05-11T11:46:54.661Z,4.30
2019-05-11T11:49:38.343Z,5.27
2019-05-11T11:52:08.303Z,4.20
2019-05-11T11:54:42.100Z,4.47
2019-05-11T11:57:10.642Z,4.57
2019-05-11T11:59:39.139Z,4.37
2019-05-11T12:02:08.621Z,4.57
2019-05-11T12:04:38.810Z,4.13
2019-05-11T12:07:08.519Z,4.90
2019-05-11T12:09:37.825Z,4.87
2019-05-11T12:12:08.458Z,5.10
2019-05-11T12:14:38.507Z,5.43
2019-05-11T12:17:08.615Z,5.27
2019-05-11T12:19:38.268Z,5.43
2019-05-11T12:22:08.658Z,5.37
2019-05-11T12:24:37.557Z,5.20
2019-05-11T12:27:07.742Z,5.03
2019-05-11T12:29:38.412Z,5.17
2019-05-11T12:32:08.435Z,6.50
2019-05-11T12:34:37.531Z,4.73
2019-05-11T12:37:08.399Z,4.90
2019-05-11T12:39:38.564Z,5.27
2019-05-11T12:42:08.602Z,5.20
2019-05-11T12:44:38.717Z,5.40
2019-05-11T12:47:19.126Z,5.20
2019-05-11T12:49:39.039Z,4.87
2019-05-11T12:52:07.828Z,5.77
2019-05-11T12:54:38.379Z,4.80
2019-05-11T12:57:07.905Z,6.73
2019-05-11T12:59:38.103Z,5.43
2019-05-11T13:02:08.188Z,5.27
2019-05-11T13:04:58.332Z,5.53
2019-05-11T13:07:25.798Z,5.07
2019-05-11T13:09:54.305Z,7.90
2019-05-11T13:12:23.084Z,5.10
2019-05-11T13:14:51.730Z,5.73
2019-05-11T13:17:34.162Z,5.57
2019-05-11T13:19:51.637Z,5.33
2019-05-11T13:22:20.475Z,5.20
2019-05-11T13:24:48.961Z,5.70
2019-05-11T13:27:18.114Z,5.47
2019-05-11T13:29:48.523Z,6.37
2019-05-11T13:32:18.554Z,5.37
2019-05-11T13:34:48.055Z,5.70
2019-05-11T13:37:18.862Z,5.40
2019-05-11T13:39:48.629Z,6.00
2019-05-11T13:42:16.943Z,6.30
2019-05-11T13:44:45.330Z,5.47
2019-05-11T13:47:17.575Z,6.00
2019-05-11T13:49:47.833Z,4.93
2019-05-11T13:52:18.085Z,5.20
2019-05-11T13:54:48.091Z,5.03
2019-05-11T13:57:37.992Z,5.10
2019-05-11T14:00:08.499Z,4.37
2019-05-11T14:02:37.987Z,4.53
2019-05-11T14:05:08.869Z,4.40
2019-05-11T14:07:38.123Z,5.33
2019-05-11T14:10:08.284Z,3.97
2019-05-11T14:12:38.598Z,3.80
2019-05-11T14:15:28.164Z,4.00
2019-05-11T14:18:05.631Z,3.93
2019-05-11T14:20:28.754Z,4.00
2019-05-11T14:23:18.072Z,4.53
2019-05-11T14:25:48.451Z,3.90
2019-05-11T14:28:17.959Z,3.37
2019-05-11T14:30:48.461Z,3.40
2019-05-11T14:33:18.079Z,3.70
2019-05-11T14:35:48.734Z,3.73
2019-05-11T14:38:18.770Z,3.60
2019-05-11T14:40:48.084Z,2.67
2019-05-11T14:43:18.761Z,3.07
2019-05-11T14:45:48.651Z,3.37
2019-05-11T14:48:24.067Z,2.90
2019-05-11T14:50:48.981Z,3.07
2019-05-11T14:53:18.004Z,3.20
2019-05-11T14:55:48.836Z,2.87
2019-05-11T14:58:19.701Z,3.00
2019-05-11T15:00:48.701Z,3.00
2019-05-11T15:03:18.211Z,2.40
2019-05-11T15:05:47.800Z,2.80
2019-05-11T15:08:18.031Z,3.37
2019-05-11T15:10:48.823Z,2.33
2019-05-11T15:13:18.546Z,2.33
2019-05-11T15:15:48.801Z,2.93
2019-05-11T15:18:17.804Z,2.03
2019-05-11T15:20:47.954Z,2.30
2019-05-11T15:23:18.023Z,1.93
2019-05-11T15:25:48.567Z,1.73
2019-05-11T15:28:18.115Z,2.07
2019-05-11T15:30:48.274Z,1.90
2019-05-11T15:33:18.323Z,1.93
2019-05-11T15:35:47.995Z,1.77
2019-05-11T15:38:17.893Z,1.50
2019-05-11T15:40:48.772Z,1.90
2019-05-11T15:43:18.135Z,1.35
2019-05-11T15:45:48.748Z,1.67
2019-05-11T15:48:18.667Z,1.52
2019-05-11T15:50:48.580Z,1.50
2019-05-11T15:53:17.842Z,1.67
2019-05-11T15:55:46.574Z,1.60
2019-05-11T15:58:15.090Z,1.70
2019-05-11T16:00:48.372Z,1.73
2019-05-11T16:03:18.586Z,1.33
2019-05-11T16:05:47.884Z,1.57
2019-05-11T16:08:18.586Z,1.20
2019-05-11T16:10:48.889Z,1.27
2019-05-11T16:13:18.142Z,1.65
2019-05-11T16:15:47.692Z,1.20
2019-05-11T16:18:18.644Z,1.10
2019-05-11T16:20:49.945Z,1.50
2019-05-11T16:23:17.526Z,1.70
2019-05-11T16:25:48.928Z,1.62
2019-05-11T16:28:19.207Z,1.05
2019-05-11T16:30:48.595Z,1.50
2019-05-11T16:33:18.168Z,2.37
2019-05-11T16:35:48.975Z,1.72
2019-05-11T16:38:18.749Z,1.22
2019-05-11T16:40:48.030Z,1.47
2019-05-11T16:43:18.999Z,1.30
2019-05-11T16:45:50.721Z,1.60
2019-05-11T16:48:18.503Z,1.20
2019-05-11T16:50:47.310Z,1.63
2019-05-11T16:53:17.957Z,1.70
2019-05-11T16:55:48.382Z,1.17
2019-05-11T16:58:19.421Z,1.20
2019-05-11T17:00:49.046Z,1.70
2019-05-11T17:03:16.966Z,1.43
2019-05-11T17:05:45.543Z,1.23
2019-05-11T17:08:14.119Z,1.40
2019-05-11T17:10:44.325Z,1.27
2019-05-11T17:13:12.828Z,1.40
2019-05-11T17:15:41.410Z,1.20
2019-05-11T17:18:09.969Z,2.10
2019-05-11T17:20:38.539Z,1.40
2019-05-11T17:23:07.208Z,1.67
2019-05-11T17:25:37.804Z,1.50
2019-05-11T17:28:09.903Z,1.73
2019-05-11T17:30:38.657Z,1.50
2019-05-11T17:33:08.720Z,1.50
2019-05-11T17:35:37.453Z,1.70
2019-05-11T17:38:07.827Z,1.40
2019-05-11T17:40:37.844Z,1.40
2019-05-11T17:43:08.873Z,1.77
2019-05-11T17:45:36.824Z,1.70
2019-05-11T17:48:05.441Z,1.63
2019-05-11T17:50:33.989Z,1.73
2019-05-11T17:53:02.186Z,1.73
2019-05-11T17:55:30.842Z,2.30
2019-05-11T17:57:59.233Z,1.57
2019-05-11T18:00:28.385Z,1.40
2019-05-11T18:02:58.314Z,2.10
2019-05-11T18:05:26.753Z,1.73
2019-05-11T18:07:55.190Z,2.20
2019-05-11T18:10:23.344Z,1.83
2019-05-11T18:12:51.704Z,2.00
2019-05-11T18:15:19.939Z,1.67
2019-05-11T18:17:48.947Z,2.00
2019-05-11T18:20:20.949Z,2.10
2019-05-11T18:22:49.124Z,1.63
2019-05-11T18:25:18.226Z,1.63
2019-05-11T18:27:48.212Z,2.13
2019-05-11T18:30:16.876Z,1.70
2019-05-11T18:32:48.294Z,1.60
2019-05-11T18:35:15.741Z,1.90
2019-05-11T18:37:47.750Z,1.60
2019-05-11T18:40:18.416Z,1.67
2019-05-11T18:42:48.488Z,1.53
2019-05-11T18:45:18.591Z,1.90
2019-05-11T18:47:48.639Z,1.60
2019-05-11T18:50:29.368Z,2.80
2019-05-11T18:52:45.888Z,2.07
2019-05-11T18:55:14.152Z,2.70
2019-05-11T18:57:42.662Z,1.70
2019-05-11T19:00:11.066Z,1.20
2019-05-11T19:02:39.344Z,1.60
2019-05-11T19:05:07.668Z,2.37
2019-05-11T19:07:38.565Z,1.67
2019-05-11T19:10:08.478Z,1.67
2019-05-11T19:12:37.709Z,2.10
2019-05-11T19:15:07.835Z,2.20
2019-05-11T19:17:38.479Z,1.65
2019-05-11T19:20:08.390Z,2.50
2019-05-11T19:22:37.688Z,2.12
2019-05-11T19:25:08.753Z,1.72
2019-05-11T19:27:36.587Z,2.87
2019-05-11T19:30:10.276Z,2.10
2019-05-11T19:32:38.788Z,2.15
2019-05-11T19:35:08.999Z,2.12
2019-05-11T19:37:38.600Z,1.95
2019-05-11T19:40:09.039Z,1.70
2019-05-11T19:42:54.530Z,2.70
2019-05-11T19:45:23.299Z,2.33
2019-05-11T19:47:51.823Z,2.50
2019-05-11T19:50:20.653Z,2.17
2019-05-11T19:52:49.080Z,2.47
2019-05-11T19:55:18.201Z,2.30
2019-05-11T19:57:48.321Z,2.42
2019-05-11T20:00:18.498Z,2.47
2019-05-11T20:02:47.153Z,2.45
2019-05-11T20:05:18.177Z,2.52
2019-05-11T20:07:48.735Z,4.45
2019-05-11T20:10:18.591Z,3.62
2019-05-11T20:12:48.358Z,4.65
2019-05-11T20:15:18.800Z,3.30
2019-05-11T20:18:08.050Z,2.52
2019-05-11T20:20:37.721Z,2.83
2019-05-11T20:23:07.801Z,2.10
2019-05-11T20:25:38.018Z,2.42
2019-05-11T20:28:06.907Z,2.90
2019-05-11T20:30:35.777Z,2.52
2019-05-11T20:33:04.616Z,1.90
2019-05-11T20:35:33.535Z,2.58
2019-05-11T20:38:02.400Z,1.90
2019-05-11T20:40:30.902Z,2.90
2019-05-11T20:42:59.674Z,2.83
2019-05-11T20:45:28.782Z,3.25
2019-05-11T20:47:57.625Z,2.17
2019-05-11T20:50:26.156Z,4.25
2019-05-11T20:52:54.982Z,3.20
2019-05-11T20:55:23.848Z,2.90
2019-05-11T20:57:52.598Z,2.70
2019-05-11T21:00:21.844Z,2.67
2019-05-11T21:02:50.683Z,2.77
2019-05-11T21:05:19.387Z,2.98
2019-05-11T21:07:47.882Z,3.45
2019-05-11T21:10:16.413Z,2.65
2019-05-11T21:12:45.257Z,3.30
2019-05-11T21:15:15.646Z,3.15
2019-05-11T21:17:44.406Z,3.27
2019-05-11T21:20:13.349Z,2.40
2019-05-11T21:22:41.854Z,3.10
2019-05-11T21:25:11.346Z,2.70
2019-05-11T21:27:39.786Z,2.65
2019-05-11T21:30:09.531Z,3.20
2019-05-11T21:32:39.660Z,3.20
2019-05-11T21:35:10.846Z,3.15
2019-05-11T21:37:40.884Z,3.17
2019-05-11T21:40:10.304Z,4.67
2019-05-11T21:42:39.259Z,2.98
2019-05-11T21:45:10.351Z,4.03
2019-05-11T21:47:39.670Z,3.50
2019-05-11T21:50:09.012Z,3.25
2019-05-11T21:52:38.715Z,3.62
2019-05-11T21:55:09.436Z,3.65
2019-05-11T21:57:38.769Z,3.35
2019-05-11T22:00:08.806Z,3.12
2019-05-11T22:02:38.449Z,3.75
2019-05-11T22:05:07.939Z,3.20
2019-05-11T22:07:38.713Z,3.10
2019-05-11T22:10:08.873Z,3.40
2019-05-11T22:12:38.706Z,3.12
2019-05-11T22:15:09.401Z,3.20
2019-05-11T22:17:39.601Z,3.72
2019-05-11T22:20:08.768Z,3.87
2019-05-11T22:22:38.947Z,4.20
2019-05-11T22:25:10.930Z,3.50
2019-05-11T22:27:39.409Z,3.12
2019-05-11T22:30:09.829Z,3.10
2019-05-11T22:32:38.773Z,3.50
2019-05-11T22:35:08.263Z,3.22
2019-05-11T22:37:38.840Z,3.50
2019-05-11T22:40:08.313Z,3.72
2019-05-11T22:42:37.141Z,3.33
2019-05-11T22:45:08.495Z,3.70
2019-05-11T22:47:39.189Z,2.90
2019-05-11T22:50:08.070Z,3.90
2019-05-11T22:52:39.787Z,3.33
2019-05-11T22:55:11.131Z,3.25
2019-05-11T22:57:38.228Z,3.80
2019-05-11T23:00:08.293Z,2.98
2019-05-11T23:02:38.052Z,2.83
2019-05-11T23:05:08.532Z,3.50
2019-05-11T23:07:41.387Z,3.65
2019-05-11T23:10:10.027Z,3.80
2019-05-11T23:12:38.819Z,3.12
2019-05-11T23:15:12.884Z,3.12
2019-05-11T23:17:42.093Z,4.12
2019-05-11T23:20:10.861Z,3.37
2019-05-11T23:22:56.677Z,4.33
2019-05-11T23:25:18.699Z,3.60
2019-05-11T23:27:48.515Z,3.20
2019-05-11T23:30:19.816Z,3.42
2019-05-11T23:32:48.782Z,3.35
2019-05-11T23:35:18.728Z,3.15
2019-05-11T23:37:49.515Z,4.08
2019-05-11T23:40:19.660Z,3.50
2019-05-11T23:42:49.048Z,3.70
2019-05-11T23:45:19.271Z,3.47
2019-05-11T23:47:48.741Z,5.17
2019-05-11T23:50:18.832Z,5.05
2019-05-11T23:52:50.304Z,3.52
2019-05-11T23:55:19.323Z,3.52
2019-05-11T23:57:49.088Z,4.03
